createdAt,value
2018-12-29T00:05:12.787Z,26.23
2018-12-29T00:07:41.180Z,22.27
2018-12-29T00:10:09.563Z,21.90
2018-12-29T00:12:37.954Z,28.87
2018-12-29T00:15:06.319Z,25.10
2018-12-29T00:20:36.158Z,24.17
2018-12-29T00:23:04.548Z,26.77
2018-12-29T00:25:32.925Z,27.00
2018-12-29T00:28:01.321Z,30.53
2018-12-29T00:30:29.688Z,24.87
2018-12-29T00:32:58.080Z,24.50
2018-12-29T00:35:26.446Z,22.87
2018-12-29T00:37:54.821Z,25.27
2018-12-29T00:40:23.529Z,24.57
2018-12-29T00:42:51.907Z,27.10
2018-12-29T00:45:20.299Z,23.23
2018-12-29T00:48:08.019Z,24.27
2018-12-29T00:50:36.472Z,23.70
2018-12-29T00:53:04.860Z,24.00
2018-12-29T00:55:33.559Z,25.50
2018-12-29T00:58:01.992Z,28.00
2018-12-29T01:00:30.360Z,23.83
2018-12-29T01:02:58.745Z,27.40
2018-12-29T01:05:27.121Z,23.60
2018-12-29T01:07:55.502Z,25.77
2018-12-29T01:10:23.878Z,25.37
2018-12-29T01:12:52.267Z,26.27
2018-12-29T01:15:20.647Z,23.90
2018-12-29T01:17:49.035Z,24.63
2018-12-29T01:20:17.404Z,25.60
2018-12-29T01:22:45.793Z,25.40
2018-12-29T01:25:14.169Z,27.13
2018-12-29T01:27:42.554Z,27.90
2018-12-29T01:30:10.932Z,24.50
2018-12-29T01:32:39.341Z,25.93
2018-12-29T01:35:07.710Z,28.40
2018-12-29T01:37:36.079Z,26.90
2018-12-29T01:42:59.588Z,27.33
2018-12-29T01:45:27.974Z,22.57
2018-12-29T01:47:56.353Z,24.43
2018-12-29T01:50:24.737Z,24.97
2018-12-29T01:52:53.119Z,27.17
2018-12-29T01:55:21.525Z,24.37
2018-12-29T01:57:49.904Z,27.30
2018-12-29T02:00:18.275Z,24.23
2018-12-29T02:02:46.657Z,26.73
2018-12-29T02:05:15.408Z,25.40
2018-12-29T02:07:43.804Z,25.10
2018-12-29T02:10:12.188Z,27.33
2018-12-29T02:12:40.576Z,26.07
2018-12-29T02:15:08.956Z,26.40
2018-12-29T02:17:37.325Z,27.43
2018-12-29T02:20:45.629Z,28.40
2018-12-29T02:23:14.015Z,25.17
2018-12-29T02:25:42.402Z,28.70
2018-12-29T02:28:10.794Z,25.17
2018-12-29T02:30:39.439Z,26.90
2018-12-29T02:33:07.817Z,25.53
2018-12-29T02:35:36.210Z,27.43
2018-12-29T02:38:23.928Z,24.47
2018-12-29T02:40:52.309Z,23.50
2018-12-29T02:43:20.687Z,32.07
2018-12-29T02:45:49.084Z,25.30
2018-12-29T02:48:37.102Z,26.90
2018-12-29T02:51:05.501Z,25.37
2018-12-29T02:53:33.916Z,25.43
2018-12-29T02:56:14.692Z,27.90
2018-12-29T02:58:43.068Z,25.80
2018-12-29T03:01:11.447Z,23.77
2018-12-29T03:03:39.831Z,24.40
2018-12-29T03:06:08.223Z,27.73
2018-12-29T03:08:55.937Z,25.93
2018-12-29T03:11:24.315Z,27.67
2018-12-29T03:13:52.728Z,27.00
2018-12-29T03:16:21.102Z,30.27
2018-12-29T03:19:08.817Z,23.17
2018-12-29T03:21:37.188Z,26.80
2018-12-29T03:24:05.698Z,24.27
2018-12-29T03:26:34.082Z,28.00
2018-12-29T03:29:02.453Z,27.27
2018-12-29T03:31:30.865Z,25.90
2018-12-29T03:33:59.219Z,27.20
2018-12-29T03:36:27.836Z,27.27
2018-12-29T03:39:15.555Z,27.47
2018-12-29T03:41:44.230Z,27.70
2018-12-29T03:44:12.605Z,28.83
2018-12-29T03:46:41.031Z,27.73
2018-12-29T03:49:09.395Z,27.07
2018-12-29T03:51:38.273Z,26.30
2018-12-29T03:54:06.656Z,28.97
2018-12-29T03:56:35.043Z,29.63
2018-12-29T03:59:03.489Z,30.50
2018-12-29T04:01:31.800Z,31.50
2018-12-29T04:04:00.179Z,32.90
2018-12-29T04:06:28.845Z,34.00
2018-12-29T04:09:34.343Z,31.77
2018-12-29T04:12:11.501Z,33.03
2018-12-29T04:14:39.972Z,32.80
2018-12-29T04:17:08.356Z,31.97
2018-12-29T04:19:36.734Z,34.30
2018-12-29T04:22:05.182Z,32.30
2018-12-29T04:24:33.578Z,32.37
2018-12-29T04:27:02.264Z,36.37
2018-12-29T04:29:32.561Z,33.00
2018-12-29T04:32:00.944Z,35.93
2018-12-29T04:34:29.333Z,34.73
2018-12-29T04:36:57.719Z,34.40
2018-12-29T04:39:26.098Z,35.60
2018-12-29T04:41:54.505Z,40.87
2018-12-29T04:44:23.172Z,36.47
2018-12-29T04:46:51.563Z,36.97
2018-12-29T04:49:19.942Z,38.10
2018-12-29T04:51:48.324Z,40.80
2018-12-29T04:54:16.698Z,40.67
2018-12-29T04:56:45.093Z,39.07
2018-12-29T04:59:13.460Z,39.30
2018-12-29T05:01:41.849Z,42.77
2018-12-29T05:04:10.229Z,38.63
2018-12-29T05:06:38.632Z,40.43
2018-12-29T05:09:07.281Z,38.10
2018-12-29T05:11:35.659Z,37.40
2018-12-29T05:14:04.033Z,36.73
2018-12-29T05:16:32.411Z,37.13
2018-12-29T05:19:00.795Z,41.40
2018-12-29T05:21:29.166Z,39.97
2018-12-29T05:23:57.834Z,40.37
2018-12-29T05:26:26.236Z,38.33
2018-12-29T05:28:54.631Z,38.07
2018-12-29T05:31:23.011Z,39.87
2018-12-29T05:33:51.403Z,39.37
2018-12-29T05:36:19.773Z,38.23
2018-12-29T05:38:48.167Z,40.63
2018-12-29T05:41:16.546Z,40.43
2018-12-29T05:43:44.926Z,39.73
2018-12-29T05:46:20.118Z,41.20
2018-12-29T05:48:43.412Z,37.67
2018-12-29T05:51:11.790Z,42.90
2018-12-29T05:53:40.230Z,41.67
2018-12-29T05:56:08.607Z,39.80
2018-12-29T05:58:54.277Z,38.70
2018-12-29T06:01:22.665Z,42.27
2018-12-29T06:03:51.042Z,40.60
2018-12-29T06:06:19.434Z,37.07
2018-12-29T06:08:47.811Z,36.90
2018-12-29T06:11:16.202Z,37.07
2018-12-29T06:13:44.577Z,40.23
2018-12-29T06:16:12.973Z,41.97
2018-12-29T06:18:41.347Z,38.57
2018-12-29T06:21:09.813Z,38.27
2018-12-29T06:23:38.200Z,36.63
2018-12-29T06:26:06.577Z,38.60
2018-12-29T06:28:34.967Z,38.53
2018-12-29T06:31:03.347Z,34.83
2018-12-29T06:33:31.732Z,41.77
2018-12-29T06:36:00.105Z,35.93
2018-12-29T06:38:28.495Z,37.83
2018-12-29T06:40:56.874Z,37.77
2018-12-29T06:43:25.254Z,42.00
2018-12-29T06:45:53.633Z,40.67
2018-12-29T06:48:22.020Z,39.53
2018-12-29T06:50:50.395Z,37.27
2018-12-29T06:53:18.776Z,38.60
2018-12-29T06:55:47.167Z,37.30
2018-12-29T06:58:15.802Z,44.27
2018-12-29T07:00:44.214Z,41.00
2018-12-29T07:03:12.590Z,40.90
2018-12-29T07:05:40.979Z,42.80
2018-12-29T07:08:09.371Z,45.30
2018-12-29T07:10:37.723Z,37.77
2018-12-29T07:13:06.104Z,37.87
2018-12-29T07:15:34.502Z,36.07
2018-12-29T07:18:12.742Z,36.50
2018-12-29T07:20:41.118Z,36.67
2018-12-29T07:23:09.512Z,39.50
2018-12-29T07:25:37.909Z,36.30
2018-12-29T07:28:06.270Z,35.83
2018-12-29T07:30:35.646Z,37.73
2018-12-29T07:33:04.044Z,34.67
2018-12-29T07:35:36.420Z,39.73
2018-12-29T07:38:05.717Z,37.83
2018-12-29T07:40:34.548Z,36.53
2018-12-29T07:43:05.607Z,33.60
2018-12-29T07:45:34.037Z,31.83
2018-12-29T07:48:02.441Z,33.33
2018-12-29T07:50:30.826Z,34.93
2018-12-29T07:53:14.225Z,35.93
2018-12-29T07:55:42.604Z,35.13
2018-12-29T07:58:10.995Z,38.97
2018-12-29T08:00:39.381Z,36.10
2018-12-29T08:03:07.750Z,37.97
2018-12-29T08:05:36.171Z,37.33
2018-12-29T08:08:04.554Z,39.27
2018-12-29T08:10:34.900Z,39.60
2018-12-29T08:13:05.220Z,39.60
2018-12-29T08:15:33.608Z,41.20
2018-12-29T08:18:01.992Z,39.77
2018-12-29T08:20:30.377Z,42.37
2018-12-29T08:22:58.754Z,40.00
2018-12-29T08:25:34.044Z,39.77
2018-12-29T08:28:02.420Z,40.93
2018-12-29T08:30:30.813Z,42.87
2018-12-29T08:32:59.194Z,40.30
2018-12-29T08:35:27.568Z,41.33
2018-12-29T08:37:56.028Z,36.60
2018-12-29T08:40:24.371Z,40.40
2018-12-29T08:42:52.758Z,39.03
2018-12-29T08:45:21.138Z,43.50
2018-12-29T08:47:49.519Z,41.77
2018-12-29T08:50:18.157Z,41.17
2018-12-29T08:52:46.562Z,38.40
2018-12-29T08:55:14.942Z,38.80
2018-12-29T08:57:44.329Z,36.33
2018-12-29T09:00:12.705Z,35.87
2018-12-29T09:02:41.098Z,40.37
2018-12-29T09:05:09.474Z,37.40
2018-12-29T09:07:37.866Z,39.17
2018-12-29T09:10:06.379Z,39.53
2018-12-29T09:12:36.698Z,42.53
2018-12-29T09:15:05.484Z,36.83
2018-12-29T09:17:33.927Z,42.37
2018-12-29T09:20:02.299Z,36.50
2018-12-29T09:22:30.712Z,43.73
2018-12-29T09:25:05.738Z,41.33
2018-12-29T09:27:34.650Z,42.83
2018-12-29T09:30:03.162Z,41.63
2018-12-29T09:32:31.513Z,39.73
2018-12-29T09:35:01.901Z,38.27
2018-12-29T09:37:30.276Z,42.57
2018-12-29T09:39:58.690Z,40.43
2018-12-29T09:42:27.069Z,34.53
2018-12-29T09:44:55.538Z,35.40
2018-12-29T09:47:30.202Z,52.07
2018-12-29T09:49:58.772Z,47.77
2018-12-29T09:52:27.586Z,45.67
2018-12-29T09:54:58.091Z,36.00
2018-12-29T09:57:26.646Z,31.70
2018-12-29T09:59:56.071Z,29.67
2018-12-29T10:02:24.605Z,31.40
2018-12-29T10:04:53.171Z,29.87
2018-12-29T10:07:21.821Z,31.03
2018-12-29T10:09:51.345Z,32.00
2018-12-29T10:12:19.741Z,28.30
2018-12-29T10:14:48.524Z,27.67
2018-12-29T10:17:17.203Z,26.83
2018-12-29T10:19:46.942Z,27.43
2018-12-29T10:22:15.805Z,24.53
2018-12-29T10:24:44.566Z,26.70
2018-12-29T10:27:13.240Z,26.70
2018-12-29T10:29:41.941Z,30.80
2018-12-29T10:32:11.662Z,28.97
2018-12-29T10:34:40.447Z,29.33
2018-12-29T10:37:10.276Z,29.03
2018-12-29T10:39:39.140Z,29.07
2018-12-29T10:42:07.898Z,28.57
2018-12-29T10:44:36.705Z,29.80
2018-12-29T10:47:05.362Z,26.40
2018-12-29T10:49:33.900Z,28.63
2018-12-29T10:52:02.612Z,27.80
2018-12-29T10:54:30.999Z,26.17
2018-12-29T10:57:18.722Z,25.67
2018-12-29T10:59:47.106Z,27.50
2018-12-29T11:02:15.485Z,29.27
2018-12-29T11:04:43.872Z,27.27
2018-12-29T11:07:12.253Z,27.87
2018-12-29T11:09:40.640Z,26.53
2018-12-29T11:12:28.364Z,27.13
2018-12-29T11:14:56.749Z,26.83
2018-12-29T11:17:25.121Z,26.53
2018-12-29T11:19:53.613Z,29.10
2018-12-29T11:22:41.328Z,27.00
2018-12-29T11:25:09.744Z,25.20
2018-12-29T11:27:38.126Z,21.53
2018-12-29T11:30:06.802Z,25.03
2018-12-29T11:32:35.201Z,23.10
2018-12-29T11:35:03.653Z,24.27
2018-12-29T11:37:32.028Z,19.73
2018-12-29T11:40:00.402Z,21.73
2018-12-29T11:42:28.785Z,22.20
2018-12-29T11:44:57.159Z,24.27
2018-12-29T11:47:25.541Z,23.27
2018-12-29T11:49:54.047Z,23.17
2018-12-29T11:52:43.442Z,23.60
2018-12-29T11:55:11.833Z,24.43
2018-12-29T11:57:40.238Z,25.73
2018-12-29T12:00:27.951Z,26.30
2018-12-29T12:03:15.671Z,24.77
2018-12-29T12:05:44.056Z,25.97
2018-12-29T12:08:12.447Z,25.50
2018-12-29T12:10:40.843Z,26.63
2018-12-29T12:13:09.223Z,26.07
2018-12-29T12:15:37.589Z,27.17
2018-12-29T12:18:05.978Z,26.67
2018-12-29T12:20:34.374Z,29.60
2018-12-29T12:23:02.748Z,25.43
2018-12-29T12:25:31.128Z,28.37
2018-12-29T12:27:59.771Z,26.67
2018-12-29T12:30:28.162Z,27.30
2018-12-29T12:32:56.532Z,28.03
2018-12-29T12:35:24.918Z,27.13
2018-12-29T12:37:53.368Z,30.17
2018-12-29T12:40:21.790Z,30.90
2018-12-29T12:42:50.462Z,30.27
2018-12-29T12:45:18.848Z,26.73
2018-12-29T12:47:47.305Z,29.57
2018-12-29T12:50:15.695Z,27.20
2018-12-29T12:53:03.401Z,26.87
2018-12-29T12:55:32.058Z,26.47
2018-12-29T12:58:02.156Z,27.53
2018-12-29T13:00:32.266Z,27.83
2018-12-29T13:03:02.376Z,26.87
2018-12-29T13:05:30.792Z,27.27
2018-12-29T13:07:59.149Z,27.33
2018-12-29T13:10:27.526Z,27.47
2018-12-29T13:12:55.908Z,28.40
2018-12-29T13:15:43.663Z,25.93
2018-12-29T13:18:13.759Z,28.23
2018-12-29T13:20:42.133Z,29.67
2018-12-29T13:25:46.432Z,25.97
2018-12-29T13:28:15.119Z,29.37
2018-12-29T13:30:43.492Z,25.03
2018-12-29T13:33:11.951Z,26.23
2018-12-29T13:35:59.730Z,26.87
2018-12-29T13:38:29.832Z,23.77
2018-12-29T13:40:58.210Z,19.60
2018-12-29T13:43:26.589Z,17.07
2018-12-29T13:45:54.969Z,16.57
2018-12-29T13:48:23.381Z,15.70
2018-12-29T13:50:51.928Z,13.73
2018-12-29T13:53:20.328Z,14.57
2018-12-29T13:55:48.708Z,13.97
2018-12-29T13:58:17.080Z,14.13
2018-12-29T14:01:04.783Z,13.90
2018-12-29T14:03:33.163Z,14.87
2018-12-29T14:06:01.537Z,15.87
2018-12-29T14:08:29.920Z,14.27
2018-12-29T14:10:58.291Z,15.03
2018-12-29T14:13:46.116Z,17.70
2018-12-29T14:16:14.487Z,15.07
2018-12-29T14:18:42.865Z,15.00
2018-12-29T14:23:58.883Z,14.77
2018-12-29T14:26:27.257Z,15.87
2018-12-29T14:28:55.643Z,16.43
2018-12-29T14:31:24.020Z,14.90
2018-12-29T14:34:11.756Z,15.90
2018-12-29T14:36:40.124Z,18.07
2018-12-29T14:39:10.235Z,17.10
2018-12-29T14:41:38.622Z,16.23
2018-12-29T14:44:07.012Z,18.40
2018-12-29T14:46:35.392Z,18.27
2018-12-29T14:49:04.005Z,17.57
2018-12-29T14:51:32.467Z,17.90
2018-12-29T14:54:00.836Z,17.40
2018-12-29T14:56:29.219Z,18.20
2018-12-29T14:59:16.936Z,17.27
2018-12-29T15:01:45.320Z,17.90
2018-12-29T15:04:13.696Z,17.40
2018-12-29T15:06:42.076Z,17.43
2018-12-29T15:09:10.450Z,17.30
2018-12-29T15:11:38.835Z,18.73
2018-12-29T15:14:07.223Z,18.53
2018-12-29T15:16:35.891Z,18.07
2018-12-29T15:19:04.308Z,19.60
2018-12-29T15:21:34.485Z,18.67
2018-12-29T15:24:02.847Z,18.07
2018-12-29T15:26:50.572Z,18.97
2018-12-29T15:29:20.659Z,17.87
2018-12-29T15:31:49.039Z,18.37
2018-12-29T15:34:36.759Z,18.73
2018-12-29T15:37:05.169Z,19.73
2018-12-29T15:39:33.899Z,18.17
2018-12-29T15:42:02.275Z,17.00
2018-12-29T15:44:30.664Z,19.07
2018-12-29T15:46:59.223Z,19.57
2018-12-29T15:49:27.610Z,18.10
2018-12-29T15:51:56.000Z,17.07
2018-12-29T15:54:24.377Z,18.57
2018-12-29T15:56:52.783Z,17.50
2018-12-29T15:59:21.162Z,18.70
2018-12-29T16:01:49.534Z,16.87
2018-12-29T16:04:18.164Z,17.53
2018-12-29T16:06:46.549Z,20.07
2018-12-29T16:09:14.939Z,17.20
2018-12-29T16:11:43.577Z,18.77
2018-12-29T16:14:35.390Z,17.70
2018-12-29T16:17:02.018Z,16.07
2018-12-29T16:19:30.414Z,14.90
2018-12-29T16:21:58.781Z,16.53
2018-12-29T16:24:27.204Z,19.27
2018-12-29T16:26:55.571Z,16.13
2018-12-29T16:29:23.953Z,17.00
2018-12-29T16:31:52.328Z,17.13
2018-12-29T16:34:20.701Z,16.60
2018-12-29T16:36:49.086Z,15.83
2018-12-29T16:39:30.096Z,15.73
2018-12-29T16:41:58.480Z,16.80
2018-12-29T16:44:26.858Z,17.03
2018-12-29T16:46:55.239Z,20.10
2018-12-29T16:49:23.618Z,19.07
2018-12-29T16:51:52.027Z,19.93
2018-12-29T16:54:20.407Z,21.50
2018-12-29T16:56:48.784Z,17.77
2018-12-29T16:59:17.174Z,19.90
2018-12-29T17:01:45.798Z,23.53
2018-12-29T17:04:14.179Z,23.57
2018-12-29T17:06:42.570Z,25.40
2018-12-29T17:09:10.951Z,24.50
2018-12-29T17:11:39.359Z,22.80
2018-12-29T17:14:07.733Z,21.80
2018-12-29T17:16:37.833Z,48.90
2018-12-29T17:19:25.724Z,26.17
2018-12-29T17:21:54.131Z,25.20
2018-12-29T17:24:22.499Z,25.60
2018-12-29T17:26:50.863Z,27.47
2018-12-29T17:29:19.251Z,26.23
2018-12-29T17:31:47.622Z,28.90
2018-12-29T17:34:16.128Z,27.17
2018-12-29T17:37:03.835Z,28.10
2018-12-29T17:39:32.287Z,29.23
2018-12-29T17:42:00.679Z,29.27
2018-12-29T17:44:29.057Z,32.33
2018-12-29T17:46:57.433Z,34.20
2018-12-29T17:49:25.815Z,30.23
2018-12-29T17:51:56.235Z,32.13
2018-12-29T17:54:44.006Z,32.87
2018-12-29T17:57:12.395Z,34.60
2018-12-29T17:59:41.018Z,30.57
2018-12-29T18:02:09.410Z,32.57
2018-12-29T18:04:39.537Z,34.00
2018-12-29T18:07:08.220Z,34.40
2018-12-29T18:09:36.605Z,31.33
2018-12-29T18:12:04.982Z,29.43
2018-12-29T18:14:33.373Z,28.73
2018-12-29T18:17:01.757Z,29.40
2018-12-29T18:19:30.633Z,33.27
2018-12-29T18:22:00.476Z,30.00
2018-12-29T18:24:29.123Z,28.93
2018-12-29T18:26:57.510Z,29.67
2018-12-29T18:29:45.218Z,29.67
2018-12-29T18:32:13.618Z,29.07
2018-12-29T18:34:43.725Z,28.30
2018-12-29T18:37:12.385Z,29.23
2018-12-29T18:39:40.757Z,26.23
2018-12-29T18:42:09.145Z,28.43
2018-12-29T18:44:37.662Z,25.67
2018-12-29T18:47:06.051Z,23.43
2018-12-29T18:49:38.482Z,23.70
2018-12-29T18:52:04.633Z,25.73
2018-12-29T18:54:33.003Z,24.03
2018-12-29T18:57:01.379Z,26.27
2018-12-29T18:59:29.760Z,23.80
2018-12-29T19:01:59.858Z,24.40
2018-12-29T19:04:28.237Z,22.73
2018-12-29T19:06:56.617Z,21.63
2018-12-29T19:09:25.006Z,23.73
2018-12-29T19:12:12.710Z,23.17
2018-12-29T19:14:41.092Z,23.33
2018-12-29T19:17:09.469Z,25.80
2018-12-29T19:19:46.224Z,23.20
2018-12-29T19:22:09.949Z,19.90
2018-12-29T19:24:38.334Z,10.57
2018-12-29T19:27:06.701Z,14.73
2018-12-29T19:29:35.139Z,11.87
2018-12-29T19:32:05.237Z,12.40
2018-12-29T19:34:54.676Z,12.20
2018-12-29T19:37:23.279Z,11.73
2018-12-29T19:39:51.653Z,12.27
2018-12-29T19:42:20.023Z,12.70
2018-12-29T19:44:48.399Z,16.20
2018-12-29T19:47:16.777Z,14.20
2018-12-29T19:49:45.161Z,14.23
2018-12-29T19:52:13.536Z,15.53
2018-12-29T19:54:41.979Z,14.43
2018-12-29T19:57:12.083Z,17.17
2018-12-29T19:59:42.174Z,14.83
2018-12-29T20:02:29.999Z,15.63
2018-12-29T20:05:00.182Z,16.57
2018-12-29T20:07:28.577Z,18.57
2018-12-29T20:09:56.958Z,16.87
2018-12-29T20:12:25.332Z,17.63
2018-12-29T20:14:53.708Z,18.03
2018-12-29T20:17:22.090Z,17.77
2018-12-29T20:19:52.176Z,16.53
2018-12-29T20:22:20.567Z,21.40
2018-12-29T20:24:48.954Z,17.87
2018-12-29T20:27:17.375Z,16.87
2018-12-29T20:29:45.708Z,19.63
2018-12-29T20:32:14.384Z,18.83
2018-12-29T20:34:42.755Z,19.23
2018-12-29T20:37:11.145Z,19.37
2018-12-29T20:39:39.529Z,21.83
2018-12-29T20:42:07.902Z,20.63
2018-12-29T20:44:36.286Z,20.60
2018-12-29T20:47:04.750Z,24.17
2018-12-29T20:49:33.138Z,27.83
2018-12-29T20:52:01.512Z,26.00
2018-12-29T20:54:29.898Z,28.73
2018-12-29T20:56:58.271Z,22.40
2018-12-29T20:59:28.371Z,21.57
2018-12-29T21:01:56.749Z,22.33
2018-12-29T21:04:25.126Z,22.13
2018-12-29T21:06:53.493Z,23.67
2018-12-29T21:09:21.873Z,21.83
2018-12-29T21:11:50.544Z,22.73
2018-12-29T21:14:20.668Z,25.87
2018-12-29T21:16:49.039Z,24.17
2018-12-29T21:19:17.435Z,25.10
2018-12-29T21:21:45.811Z,24.83
2018-12-29T21:24:14.194Z,24.33
2018-12-29T21:26:42.563Z,23.27
2018-12-29T21:29:10.946Z,23.13
2018-12-29T21:31:39.316Z,24.13
2018-12-29T21:34:07.692Z,26.23
2018-12-29T21:36:36.107Z,24.87
2018-12-29T21:39:44.373Z,25.53
2018-12-29T21:42:12.747Z,27.87
2018-12-29T21:44:41.161Z,23.00
2018-12-29T21:47:09.530Z,19.17
2018-12-29T21:49:37.913Z,23.60
2018-12-29T21:52:06.284Z,23.97
2018-12-29T21:54:34.713Z,21.40
2018-12-29T21:57:03.093Z,19.93
2018-12-29T21:59:31.469Z,22.57
2018-12-29T22:02:00.028Z,23.30
2018-12-29T22:04:28.404Z,19.10
2018-12-29T22:06:56.792Z,17.23
2018-12-29T22:09:25.166Z,22.80
2018-12-29T22:11:53.555Z,19.63
2018-12-29T22:14:21.921Z,19.13
2018-12-29T22:16:50.299Z,18.70
2018-12-29T22:19:18.667Z,19.70
2018-12-29T22:21:47.057Z,18.33
2018-12-29T22:24:16.085Z,19.50
2018-12-29T22:26:45.552Z,20.33
2018-12-29T22:29:15.641Z,17.47
2018-12-29T22:31:44.011Z,20.90
2018-12-29T22:34:12.715Z,20.53
2018-12-29T22:36:41.084Z,17.10
2018-12-29T22:39:09.472Z,17.90
2018-12-29T22:41:37.840Z,21.03
2018-12-29T22:44:06.406Z,23.03
2018-12-29T22:46:34.852Z,22.00
2018-12-29T22:49:03.483Z,21.80
2018-12-29T22:51:31.871Z,20.40
2018-12-29T22:54:00.248Z,19.07
2018-12-29T22:56:29.012Z,20.13
2018-12-29T22:58:57.424Z,19.50
2018-12-29T23:01:25.795Z,15.93
2018-12-29T23:03:54.172Z,18.43
2018-12-29T23:06:22.544Z,18.63
2018-12-29T23:08:51.187Z,15.27
2018-12-29T23:11:19.557Z,16.90
2018-12-29T23:13:47.934Z,15.43
2018-12-29T23:16:16.310Z,16.87
2018-12-29T23:18:45.081Z,14.40
2018-12-29T23:21:13.464Z,17.77
2018-12-29T23:23:41.835Z,17.50
2018-12-29T23:26:11.143Z,15.43
2018-12-29T23:28:39.519Z,15.03
2018-12-29T23:31:08.301Z,19.23
2018-12-29T23:33:37.689Z,14.10
2018-12-29T23:36:06.078Z,16.43
2018-12-29T23:38:35.453Z,18.97
2018-12-29T23:41:03.835Z,14.97
2018-12-29T23:43:33.161Z,15.40
2018-12-29T23:46:01.539Z,13.63
2018-12-29T23:48:29.914Z,9.53
2018-12-29T23:51:05.294Z,13.40
2018-12-29T23:53:28.834Z,15.80
2018-12-29T23:55:57.596Z,12.07
2018-12-29T23:58:25.975Z,15.33
